sensor_id;sensor_type;location;lat;lon;timestamp;P1;durP1;ratioP1;P2;durP2;ratioP2
8993;SDS011;4532;50.886;4.700;2022-07-29T00:01:21;2.63;;;1.10;;
8993;SDS011;4532;50.886;4.700;2022-07-29T00:03:48;2.47;;;1.23;;
8993;SDS011;4532;50.886;4.700;2022-07-29T00:06:18;3.88;;;1.27;;
8993;SDS011;4532;50.886;4.700;2022-07-29T00:08:48;4.07;;;1.15;;
8993;SDS011;4532;50.886;4.700;2022-07-29T00:11:15;2.65;;;1.40;;
8993;SDS011;4532;50.886;4.700;2022-07-29T00:13:45;3.58;;;1.30;;
8993;SDS011;4532;50.886;4.700;2022-07-29T00:16:16;3.10;;;1.00;;
8993;SDS011;4532;50.886;4.700;2022-07-29T00:18:49;1.42;;;1.10;;
8993;SDS011;4532;50.886;4.700;2022-07-29T00:21:19;3.17;;;1.42;;
8993;SDS011;4532;50.886;4.700;2022-07-29T00:23:47;3.42;;;1.20;;
8993;SDS011;4532;50.886;4.700;2022-07-29T00:26:14;3.42;;;1.27;;
8993;SDS011;4532;50.886;4.700;2022-07-29T00:28:46;2.67;;;1.08;;
8993;SDS011;4532;50.886;4.700;2022-07-29T00:31:13;4.90;;;1.65;;
8993;SDS011;4532;50.886;4.700;2022-07-29T00:33:45;4.80;;;1.30;;
8993;SDS011;4532;50.886;4.700;2022-07-29T00:36:13;2.67;;;1.40;;
8993;SDS011;4532;50.886;4.700;2022-07-29T00:38:40;5.82;;;1.70;;
8993;SDS011;4532;50.886;4.700;2022-07-29T00:41:11;2.15;;;1.60;;
8993;SDS011;4532;50.886;4.700;2022-07-29T00:43:38;2.92;;;1.40;;
8993;SDS011;4532;50.886;4.700;2022-07-29T00:46:06;2.63;;;1.52;;
8993;SDS011;4532;50.886;4.700;2022-07-29T00:48:36;2.15;;;1.38;;
8993;SDS011;4532;50.886;4.700;2022-07-29T00:51:05;4.93;;;1.88;;
8993;SDS011;4532;50.886;4.700;2022-07-29T00:53:36;2.63;;;1.50;;
8993;SDS011;4532;50.886;4.700;2022-07-29T00:56:08;4.85;;;1.50;;
8993;SDS011;4532;50.886;4.700;2022-07-29T00:58:37;4.25;;;1.85;;
8993;SDS011;4532;50.886;4.700;2022-07-29T01:01:07;4.18;;;1.58;;
8993;SDS011;4532;50.886;4.700;2022-07-29T01:03:37;3.13;;;1.50;;
8993;SDS011;4532;50.886;4.700;2022-07-29T01:06:05;5.03;;;1.70;;
8993;SDS011;4532;50.886;4.700;2022-07-29T01:08:32;2.85;;;1.40;;
8993;SDS011;4532;50.886;4.700;2022-07-29T01:11:02;5.95;;;1.50;;
8993;SDS011;4532;50.886;4.700;2022-07-29T01:13:30;3.17;;;1.50;;
8993;SDS011;4532;50.886;4.700;2022-07-29T01:16:03;4.93;;;1.63;;
8993;SDS011;4532;50.886;4.700;2022-07-29T01:18:42;3.38;;;1.63;;
8993;SDS011;4532;50.886;4.700;2022-07-29T01:21:35;4.95;;;1.67;;
8993;SDS011;4532;50.886;4.700;2022-07-29T01:24:39;3.00;;;1.83;;
8993;SDS011;4532;50.886;4.700;2022-07-29T01:27:28;3.15;;;1.40;;
8993;SDS011;4532;50.886;4.700;2022-07-29T01:30:07;4.28;;;1.55;;
8993;SDS011;4532;50.886;4.700;2022-07-29T01:32:38;1.42;;;1.30;;
8993;SDS011;4532;50.886;4.700;2022-07-29T01:37:50;3.33;;;1.60;;
8993;SDS011;4532;50.886;4.700;2022-07-29T01:40:25;4.32;;;2.00;;
8993;SDS011;4532;50.886;4.700;2022-07-29T01:42:58;6.43;;;2.08;;
8993;SDS011;4532;50.886;4.700;2022-07-29T01:53:59;2.75;;;1.83;;
8993;SDS011;4532;50.886;4.700;2022-07-29T01:56:33;3.63;;;1.38;;
8993;SDS011;4532;50.886;4.700;2022-07-29T01:59:07;3.17;;;1.30;;
8993;SDS011;4532;50.886;4.700;2022-07-29T02:01:40;4.57;;;1.40;;
8993;SDS011;4532;50.886;4.700;2022-07-29T02:04:11;2.80;;;1.35;;
8993;SDS011;4532;50.886;4.700;2022-07-29T02:06:57;2.72;;;1.42;;
8993;SDS011;4532;50.886;4.700;2022-07-29T02:09:28;2.72;;;1.50;;
8993;SDS011;4532;50.886;4.700;2022-07-29T02:11:58;5.70;;;1.70;;
8993;SDS011;4532;50.886;4.700;2022-07-29T02:14:28;2.88;;;1.70;;
8993;SDS011;4532;50.886;4.700;2022-07-29T02:16:59;3.58;;;1.67;;
8993;SDS011;4532;50.886;4.700;2022-07-29T02:19:30;3.25;;;1.60;;
8993;SDS011;4532;50.886;4.700;2022-07-29T02:22:00;2.22;;;1.40;;
8993;SDS011;4532;50.886;4.700;2022-07-29T02:24:28;3.38;;;1.83;;
8993;SDS011;4532;50.886;4.700;2022-07-29T02:26:59;2.60;;;1.42;;
8993;SDS011;4532;50.886;4.700;2022-07-29T02:29:30;5.88;;;1.60;;
8993;SDS011;4532;50.886;4.700;2022-07-29T02:31:59;4.75;;;1.50;;
8993;SDS011;4532;50.886;4.700;2022-07-29T02:34:31;2.42;;;1.50;;
8993;SDS011;4532;50.886;4.700;2022-07-29T02:37:05;2.90;;;1.40;;
8993;SDS011;4532;50.886;4.700;2022-07-29T02:39:39;3.25;;;1.65;;
8993;SDS011;4532;50.886;4.700;2022-07-29T02:42:10;4.20;;;1.80;;
8993;SDS011;4532;50.886;4.700;2022-07-29T02:44:42;1.92;;;1.48;;
8993;SDS011;4532;50.886;4.700;2022-07-29T02:47:20;4.03;;;1.75;;
8993;SDS011;4532;50.886;4.700;2022-07-29T02:49:59;2.47;;;1.70;;
8993;SDS011;4532;50.886;4.700;2022-07-29T02:57:49;2.28;;;1.50;;
8993;SDS011;4532;50.886;4.700;2022-07-29T03:00:25;1.75;;;1.50;;
8993;SDS011;4532;50.886;4.700;2022-07-29T03:02:56;1.50;;;1.40;;
8993;SDS011;4532;50.886;4.700;2022-07-29T03:05:30;2.17;;;1.60;;
8993;SDS011;4532;50.886;4.700;2022-07-29T03:08:04;3.47;;;1.50;;
8993;SDS011;4532;50.886;4.700;2022-07-29T03:10:36;6.65;;;1.60;;
8993;SDS011;4532;50.886;4.700;2022-07-29T03:13:06;4.10;;;1.60;;
8993;SDS011;4532;50.886;4.700;2022-07-29T03:15:34;6.05;;;1.58;;
8993;SDS011;4532;50.886;4.700;2022-07-29T03:18:02;3.95;;;2.20;;
8993;SDS011;4532;50.886;4.700;2022-07-29T03:20:32;2.53;;;1.40;;
8993;SDS011;4532;50.886;4.700;2022-07-29T03:22:59;2.47;;;1.70;;
8993;SDS011;4532;50.886;4.700;2022-07-29T03:25:29;3.75;;;1.70;;
8993;SDS011;4532;50.886;4.700;2022-07-29T03:27:56;1.75;;;1.30;;
8993;SDS011;4532;50.886;4.700;2022-07-29T03:30:26;3.28;;;1.63;;
8993;SDS011;4532;50.886;4.700;2022-07-29T03:32:56;3.35;;;1.50;;
8993;SDS011;4532;50.886;4.700;2022-07-29T03:35:27;4.72;;;1.70;;
8993;SDS011;4532;50.886;4.700;2022-07-29T03:37:56;2.88;;;1.77;;
8993;SDS011;4532;50.886;4.700;2022-07-29T03:40:27;3.05;;;1.70;;
8993;SDS011;4532;50.886;4.700;2022-07-29T03:43:18;3.00;;;1.35;;
8993;SDS011;4532;50.886;4.700;2022-07-29T03:45:51;3.28;;;1.60;;
8993;SDS011;4532;50.886;4.700;2022-07-29T03:48:23;2.03;;;1.42;;
8993;SDS011;4532;50.886;4.700;2022-07-29T03:50:53;4.13;;;1.52;;
8993;SDS011;4532;50.886;4.700;2022-07-29T03:53:22;2.38;;;1.30;;
8993;SDS011;4532;50.886;4.700;2022-07-29T03:55:51;4.00;;;1.85;;
8993;SDS011;4532;50.886;4.700;2022-07-29T03:58:23;2.58;;;1.45;;
8993;SDS011;4532;50.886;4.700;2022-07-29T04:00:54;3.15;;;1.80;;
8993;SDS011;4532;50.886;4.700;2022-07-29T04:03:22;3.08;;;1.50;;
8993;SDS011;4532;50.886;4.700;2022-07-29T04:06:04;5.47;;;1.85;;
8993;SDS011;4532;50.886;4.700;2022-07-29T04:08:39;4.53;;;1.35;;
8993;SDS011;4532;50.886;4.700;2022-07-29T04:11:06;3.05;;;1.40;;
8993;SDS011;4532;50.886;4.700;2022-07-29T04:13:34;3.10;;;1.80;;
8993;SDS011;4532;50.886;4.700;2022-07-29T04:16:01;2.17;;;1.45;;
8993;SDS011;4532;50.886;4.700;2022-07-29T04:18:28;3.30;;;1.40;;
8993;SDS011;4532;50.886;4.700;2022-07-29T04:20:58;3.33;;;1.42;;
8993;SDS011;4532;50.886;4.700;2022-07-29T04:23:29;5.82;;;1.90;;
8993;SDS011;4532;50.886;4.700;2022-07-29T04:25:59;3.88;;;1.50;;
8993;SDS011;4532;50.886;4.700;2022-07-29T04:28:27;5.20;;;1.65;;
8993;SDS011;4532;50.886;4.700;2022-07-29T04:30:55;2.22;;;1.88;;
8993;SDS011;4532;50.886;4.700;2022-07-29T04:33:22;3.83;;;1.83;;
8993;SDS011;4532;50.886;4.700;2022-07-29T04:35:50;2.38;;;1.83;;
8993;SDS011;4532;50.886;4.700;2022-07-29T04:38:20;2.53;;;1.85;;
8993;SDS011;4532;50.886;4.700;2022-07-29T04:40:48;2.50;;;1.73;;
8993;SDS011;4532;50.886;4.700;2022-07-29T04:43:15;4.28;;;1.88;;
8993;SDS011;4532;50.886;4.700;2022-07-29T04:45:48;3.65;;;1.70;;
8993;SDS011;4532;50.886;4.700;2022-07-29T04:48:21;2.15;;;1.60;;
8993;SDS011;4532;50.886;4.700;2022-07-29T04:50:56;2.33;;;1.90;;
8993;SDS011;4532;50.886;4.700;2022-07-29T04:53:29;1.92;;;1.73;;
8993;SDS011;4532;50.886;4.700;2022-07-29T04:55:58;3.13;;;1.90;;
8993;SDS011;4532;50.886;4.700;2022-07-29T04:58:28;2.88;;;1.98;;
8993;SDS011;4532;50.886;4.700;2022-07-29T05:01:00;2.67;;;2.08;;
8993;SDS011;4532;50.886;4.700;2022-07-29T05:03:30;5.07;;;1.83;;
8993;SDS011;4532;50.886;4.700;2022-07-29T05:05:57;3.08;;;1.63;;
8993;SDS011;4532;50.886;4.700;2022-07-29T05:08:29;1.65;;;1.52;;
8993;SDS011;4532;50.886;4.700;2022-07-29T05:10:57;3.92;;;1.80;;
8993;SDS011;4532;50.886;4.700;2022-07-29T05:13:37;4.63;;;2.33;;
8993;SDS011;4532;50.886;4.700;2022-07-29T05:16:11;2.92;;;1.77;;
8993;SDS011;4532;50.886;4.700;2022-07-29T05:18:43;3.90;;;1.90;;
8993;SDS011;4532;50.886;4.700;2022-07-29T05:21:13;3.90;;;1.80;;
8993;SDS011;4532;50.886;4.700;2022-07-29T05:23:41;4.32;;;1.70;;
8993;SDS011;4532;50.886;4.700;2022-07-29T05:26:08;3.80;;;1.90;;
8993;SDS011;4532;50.886;4.700;2022-07-29T05:28:38;3.63;;;1.80;;
8993;SDS011;4532;50.886;4.700;2022-07-29T05:31:05;3.40;;;2.00;;
8993;SDS011;4532;50.886;4.700;2022-07-29T05:33:33;2.58;;;2.10;;
8993;SDS011;4532;50.886;4.700;2022-07-29T05:36:09;2.58;;;2.10;;
8993;SDS011;4532;50.886;4.700;2022-07-29T05:38:41;4.88;;;2.33;;
8993;SDS011;4532;50.886;4.700;2022-07-29T05:41:11;4.82;;;2.50;;
8993;SDS011;4532;50.886;4.700;2022-07-29T05:43:38;2.13;;;1.85;;
8993;SDS011;4532;50.886;4.700;2022-07-29T05:46:05;3.50;;;2.30;;
8993;SDS011;4532;50.886;4.700;2022-07-29T05:48:32;4.47;;;2.58;;
8993;SDS011;4532;50.886;4.700;2022-07-29T05:50:59;4.72;;;2.40;;
8993;SDS011;4532;50.886;4.700;2022-07-29T05:53:30;3.67;;;2.20;;
8993;SDS011;4532;50.886;4.700;2022-07-29T05:56:05;4.93;;;2.60;;
8993;SDS011;4532;50.886;4.700;2022-07-29T05:58:33;5.57;;;2.28;;
8993;SDS011;4532;50.886;4.700;2022-07-29T06:01:00;3.60;;;2.05;;
8993;SDS011;4532;50.886;4.700;2022-07-29T06:03:30;3.38;;;2.22;;
8993;SDS011;4532;50.886;4.700;2022-07-29T06:05:57;4.32;;;2.70;;
8993;SDS011;4532;50.886;4.700;2022-07-29T06:08:24;3.15;;;2.38;;
8993;SDS011;4532;50.886;4.700;2022-07-29T06:10:55;4.00;;;2.67;;
8993;SDS011;4532;50.886;4.700;2022-07-29T06:13:28;5.18;;;2.35;;
8993;SDS011;4532;50.886;4.700;2022-07-29T06:15:56;3.10;;;2.75;;
8993;SDS011;4532;50.886;4.700;2022-07-29T06:18:26;5.50;;;2.53;;
8993;SDS011;4532;50.886;4.700;2022-07-29T06:20:55;3.03;;;2.60;;
8993;SDS011;4532;50.886;4.700;2022-07-29T06:23:23;4.35;;;2.90;;
8993;SDS011;4532;50.886;4.700;2022-07-29T06:25:50;6.13;;;2.33;;
8993;SDS011;4532;50.886;4.700;2022-07-29T06:28:22;4.05;;;2.28;;
8993;SDS011;4532;50.886;4.700;2022-07-29T06:30:52;3.63;;;2.28;;
8993;SDS011;4532;50.886;4.700;2022-07-29T06:33:22;4.28;;;2.22;;
8993;SDS011;4532;50.886;4.700;2022-07-29T06:35:49;4.60;;;2.53;;
8993;SDS011;4532;50.886;4.700;2022-07-29T06:38:20;5.20;;;2.42;;
8993;SDS011;4532;50.886;4.700;2022-07-29T06:41:00;6.15;;;3.20;;
8993;SDS011;4532;50.886;4.700;2022-07-29T06:43:29;3.22;;;2.72;;
8993;SDS011;4532;50.886;4.700;2022-07-29T06:46:01;3.88;;;2.75;;
8993;SDS011;4532;50.886;4.700;2022-07-29T06:48:33;5.88;;;2.92;;
8993;SDS011;4532;50.886;4.700;2022-07-29T06:51:01;3.22;;;2.75;;
8993;SDS011;4532;50.886;4.700;2022-07-29T06:53:34;3.92;;;2.72;;
8993;SDS011;4532;50.886;4.700;2022-07-29T06:56:02;8.88;;;4.05;;
8993;SDS011;4532;50.886;4.700;2022-07-29T06:58:33;6.68;;;2.75;;
8993;SDS011;4532;50.886;4.700;2022-07-29T07:01:02;6.38;;;3.08;;
8993;SDS011;4532;50.886;4.700;2022-07-29T07:03:33;4.50;;;2.85;;
8993;SDS011;4532;50.886;4.700;2022-07-29T07:06:00;4.28;;;2.67;;
8993;SDS011;4532;50.886;4.700;2022-07-29T07:08:27;4.95;;;2.28;;
8993;SDS011;4532;50.886;4.700;2022-07-29T07:10:55;3.85;;;2.45;;
8993;SDS011;4532;50.886;4.700;2022-07-29T07:13:25;3.75;;;2.80;;
8993;SDS011;4532;50.886;4.700;2022-07-29T07:15:52;5.47;;;3.00;;
8993;SDS011;4532;50.886;4.700;2022-07-29T07:18:22;6.28;;;2.92;;
8993;SDS011;4532;50.886;4.700;2022-07-29T07:20:49;6.25;;;2.60;;
8993;SDS011;4532;50.886;4.700;2022-07-29T07:23:19;4.30;;;2.53;;
8993;SDS011;4532;50.886;4.700;2022-07-29T07:25:48;4.47;;;2.80;;
8993;SDS011;4532;50.886;4.700;2022-07-29T07:28:16;5.70;;;2.75;;
8993;SDS011;4532;50.886;4.700;2022-07-29T07:30:51;3.63;;;2.60;;
8993;SDS011;4532;50.886;4.700;2022-07-29T07:33:23;4.18;;;2.80;;
8993;SDS011;4532;50.886;4.700;2022-07-29T07:35:51;3.03;;;2.53;;
8993;SDS011;4532;50.886;4.700;2022-07-29T07:38:21;5.47;;;3.05;;
8993;SDS011;4532;50.886;4.700;2022-07-29T07:40:48;5.15;;;3.05;;
8993;SDS011;4532;50.886;4.700;2022-07-29T07:43:15;3.38;;;2.80;;
8993;SDS011;4532;50.886;4.700;2022-07-29T07:45:42;5.63;;;2.50;;
8993;SDS011;4532;50.886;4.700;2022-07-29T07:48:10;3.58;;;2.40;;
8993;SDS011;4532;50.886;4.700;2022-07-29T07:50:43;4.32;;;2.55;;
8993;SDS011;4532;50.886;4.700;2022-07-29T07:53:15;2.85;;;2.42;;
8993;SDS011;4532;50.886;4.700;2022-07-29T07:55:47;4.47;;;2.97;;
8993;SDS011;4532;50.886;4.700;2022-07-29T07:58:34;3.78;;;2.67;;
8993;SDS011;4532;50.886;4.700;2022-07-29T08:01:04;3.13;;;2.63;;
8993;SDS011;4532;50.886;4.700;2022-07-29T08:03:32;5.57;;;3.08;;
8993;SDS011;4532;50.886;4.700;2022-07-29T08:06:02;5.03;;;3.28;;
8993;SDS011;4532;50.886;4.700;2022-07-29T08:08:32;3.85;;;2.20;;
8993;SDS011;4532;50.886;4.700;2022-07-29T08:11:02;3.00;;;2.55;;
8993;SDS011;4532;50.886;4.700;2022-07-29T08:13:35;3.38;;;2.70;;
8993;SDS011;4532;50.886;4.700;2022-07-29T08:16:03;2.95;;;2.50;;
8993;SDS011;4532;50.886;4.700;2022-07-29T08:18:42;3.53;;;2.60;;
8993;SDS011;4532;50.886;4.700;2022-07-29T08:21:09;5.25;;;2.85;;
8993;SDS011;4532;50.886;4.700;2022-07-29T08:23:43;3.85;;;2.60;;
8993;SDS011;4532;50.886;4.700;2022-07-29T08:26:25;3.80;;;2.72;;
8993;SDS011;4532;50.886;4.700;2022-07-29T08:28:57;6.60;;;3.30;;
8993;SDS011;4532;50.886;4.700;2022-07-29T08:31:24;3.95;;;2.95;;
8993;SDS011;4532;50.886;4.700;2022-07-29T08:33:54;4.20;;;2.75;;
8993;SDS011;4532;50.886;4.700;2022-07-29T08:36:24;4.75;;;2.67;;
8993;SDS011;4532;50.886;4.700;2022-07-29T08:38:59;4.63;;;2.42;;
8993;SDS011;4532;50.886;4.700;2022-07-29T08:41:30;3.10;;;2.10;;
8993;SDS011;4532;50.886;4.700;2022-07-29T08:43:57;7.65;;;2.60;;
8993;SDS011;4532;50.886;4.700;2022-07-29T08:46:25;4.53;;;2.70;;
8993;SDS011;4532;50.886;4.700;2022-07-29T08:48:52;3.35;;;2.45;;
8993;SDS011;4532;50.886;4.700;2022-07-29T08:51:21;3.08;;;2.60;;
8993;SDS011;4532;50.886;4.700;2022-07-29T08:53:50;6.30;;;2.97;;
8993;SDS011;4532;50.886;4.700;2022-07-29T08:56:18;4.28;;;2.63;;
8993;SDS011;4532;50.886;4.700;2022-07-29T08:58:48;3.30;;;2.15;;
8993;SDS011;4532;50.886;4.700;2022-07-29T09:01:21;5.50;;;2.60;;
8993;SDS011;4532;50.886;4.700;2022-07-29T09:04:03;6.80;;;2.67;;
8993;SDS011;4532;50.886;4.700;2022-07-29T09:06:34;6.15;;;2.20;;
8993;SDS011;4532;50.886;4.700;2022-07-29T09:09:07;3.55;;;1.98;;
8993;SDS011;4532;50.886;4.700;2022-07-29T09:11:34;3.63;;;1.90;;
8993;SDS011;4532;50.886;4.700;2022-07-29T09:14:02;2.60;;;1.95;;
8993;SDS011;4532;50.886;4.700;2022-07-29T09:19:26;3.20;;;1.98;;
8993;SDS011;4532;50.886;4.700;2022-07-29T09:21:56;1.55;;;1.45;;
8993;SDS011;4532;50.886;4.700;2022-07-29T09:24:35;3.35;;;1.90;;
8993;SDS011;4532;50.886;4.700;2022-07-29T09:27:26;3.28;;;1.75;;
8993;SDS011;4532;50.886;4.700;2022-07-29T09:30:02;4.40;;;2.10;;
8993;SDS011;4532;50.886;4.700;2022-07-29T09:32:33;5.03;;;2.20;;
8993;SDS011;4532;50.886;4.700;2022-07-29T09:35:20;2.67;;;1.70;;
8993;SDS011;4532;50.886;4.700;2022-07-29T09:37:52;3.38;;;1.63;;
8993;SDS011;4532;50.886;4.700;2022-07-29T09:40:21;2.40;;;2.20;;
8993;SDS011;4532;50.886;4.700;2022-07-29T09:42:50;4.28;;;1.55;;
8993;SDS011;4532;50.886;4.700;2022-07-29T09:45:29;2.90;;;1.60;;
8993;SDS011;4532;50.886;4.700;2022-07-29T09:47:58;4.45;;;1.88;;
8993;SDS011;4532;50.886;4.700;2022-07-29T09:50:36;4.47;;;2.53;;
8993;SDS011;4532;50.886;4.700;2022-07-29T09:53:07;2.50;;;1.50;;
8993;SDS011;4532;50.886;4.700;2022-07-29T09:55:47;1.45;;;1.33;;
8993;SDS011;4532;50.886;4.700;2022-07-29T09:58:18;1.45;;;1.30;;
8993;SDS011;4532;50.886;4.700;2022-07-29T10:00:46;2.92;;;1.50;;
8993;SDS011;4532;50.886;4.700;2022-07-29T10:03:17;2.58;;;1.90;;
8993;SDS011;4532;50.886;4.700;2022-07-29T10:05:45;1.83;;;1.38;;
8993;SDS011;4532;50.886;4.700;2022-07-29T10:08:13;2.33;;;1.40;;
8993;SDS011;4532;50.886;4.700;2022-07-29T10:10:51;2.25;;;1.63;;
8993;SDS011;4532;50.886;4.700;2022-07-29T10:13:35;2.75;;;1.50;;
8993;SDS011;4532;50.886;4.700;2022-07-29T10:16:02;1.30;;;1.17;;
8993;SDS011;4532;50.886;4.700;2022-07-29T10:18:29;4.13;;;1.48;;
8993;SDS011;4532;50.886;4.700;2022-07-29T10:20:59;3.13;;;1.75;;
8993;SDS011;4532;50.886;4.700;2022-07-29T10:23:30;2.20;;;1.45;;
8993;SDS011;4532;50.886;4.700;2022-07-29T10:26:12;2.63;;;1.60;;
8993;SDS011;4532;50.886;4.700;2022-07-29T10:28:41;2.50;;;1.30;;
8993;SDS011;4532;50.886;4.700;2022-07-29T10:31:15;2.42;;;1.30;;
8993;SDS011;4532;50.886;4.700;2022-07-29T10:36:44;2.25;;;1.45;;
8993;SDS011;4532;50.886;4.700;2022-07-29T10:42:17;4.07;;;1.38;;
8993;SDS011;4532;50.886;4.700;2022-07-29T10:45:00;2.20;;;1.50;;
8993;SDS011;4532;50.886;4.700;2022-07-29T10:47:30;3.05;;;1.50;;
8993;SDS011;4532;50.886;4.700;2022-07-29T10:50:04;2.80;;;1.42;;
8993;SDS011;4532;50.886;4.700;2022-07-29T10:55:52;1.40;;;1.30;;
8993;SDS011;4532;50.886;4.700;2022-07-29T10:58:18;2.22;;;1.45;;
8993;SDS011;4532;50.886;4.700;2022-07-29T11:00:49;1.75;;;1.17;;
8993;SDS011;4532;50.886;4.700;2022-07-29T11:06:25;3.75;;;1.55;;
8993;SDS011;4532;50.886;4.700;2022-07-29T11:09:34;2.85;;;1.50;;
8993;SDS011;4532;50.886;4.700;2022-07-29T11:15:08;4.93;;;1.42;;
8993;SDS011;4532;50.886;4.700;2022-07-29T11:28:54;2.72;;;1.50;;
8993;SDS011;4532;50.886;4.700;2022-07-29T11:31:39;3.17;;;1.50;;
8993;SDS011;4532;50.886;4.700;2022-07-29T11:34:18;2.83;;;1.60;;
8993;SDS011;4532;50.886;4.700;2022-07-29T11:39:36;2.75;;;1.30;;
8993;SDS011;4532;50.886;4.700;2022-07-29T11:45:11;2.78;;;1.63;;
8993;SDS011;4532;50.886;4.700;2022-07-29T11:48:03;2.58;;;1.77;;
8993;SDS011;4532;50.886;4.700;2022-07-29T11:50:52;6.53;;;1.75;;
8993;SDS011;4532;50.886;4.700;2022-07-29T11:53:23;4.57;;;2.00;;
8993;SDS011;4532;50.886;4.700;2022-07-29T11:55:54;3.42;;;1.58;;
8993;SDS011;4532;50.886;4.700;2022-07-29T11:58:24;2.97;;;1.70;;
8993;SDS011;4532;50.886;4.700;2022-07-29T12:00:53;3.85;;;1.52;;
8993;SDS011;4532;50.886;4.700;2022-07-29T12:03:28;4.05;;;1.60;;
8993;SDS011;4532;50.886;4.700;2022-07-29T12:06:01;2.05;;;1.63;;
8993;SDS011;4532;50.886;4.700;2022-07-29T12:08:38;2.63;;;1.38;;
8993;SDS011;4532;50.886;4.700;2022-07-29T12:11:14;4.80;;;1.77;;
8993;SDS011;4532;50.886;4.700;2022-07-29T12:13:49;2.47;;;1.77;;
8993;SDS011;4532;50.886;4.700;2022-07-29T12:16:20;3.65;;;1.55;;
8993;SDS011;4532;50.886;4.700;2022-07-29T12:19:00;2.53;;;1.50;;
8993;SDS011;4532;50.886;4.700;2022-07-29T12:24:22;4.30;;;1.67;;
8993;SDS011;4532;50.886;4.700;2022-07-29T12:26:53;3.03;;;1.70;;
8993;SDS011;4532;50.886;4.700;2022-07-29T12:29:25;1.55;;;1.40;;
8993;SDS011;4532;50.886;4.700;2022-07-29T12:32:00;3.67;;;1.73;;
8993;SDS011;4532;50.886;4.700;2022-07-29T12:34:27;3.63;;;1.40;;
8993;SDS011;4532;50.886;4.700;2022-07-29T12:36:56;2.60;;;1.40;;
8993;SDS011;4532;50.886;4.700;2022-07-29T12:39:25;2.38;;;1.35;;
8993;SDS011;4532;50.886;4.700;2022-07-29T12:41:54;3.03;;;1.50;;
8993;SDS011;4532;50.886;4.700;2022-07-29T12:44:49;2.35;;;1.50;;
8993;SDS011;4532;50.886;4.700;2022-07-29T12:47:18;2.03;;;1.73;;
8993;SDS011;4532;50.886;4.700;2022-07-29T12:49:46;3.13;;;1.55;;
8993;SDS011;4532;50.886;4.700;2022-07-29T12:52:27;1.67;;;1.35;;
8993;SDS011;4532;50.886;4.700;2022-07-29T12:54:59;2.63;;;1.63;;
8993;SDS011;4532;50.886;4.700;2022-07-29T12:57:27;2.60;;;1.40;;
8993;SDS011;4532;50.886;4.700;2022-07-29T13:00:10;4.32;;;1.63;;
8993;SDS011;4532;50.886;4.700;2022-07-29T13:02:40;1.83;;;1.55;;
8993;SDS011;4532;50.886;4.700;2022-07-29T13:05:11;2.00;;;1.30;;
8993;SDS011;4532;50.886;4.700;2022-07-29T13:07:39;2.38;;;1.40;;
8993;SDS011;4532;50.886;4.700;2022-07-29T13:10:22;3.47;;;1.77;;
8993;SDS011;4532;50.886;4.700;2022-07-29T13:15:44;2.78;;;1.40;;
8993;SDS011;4532;50.886;4.700;2022-07-29T13:18:34;2.13;;;1.45;;
8993;SDS011;4532;50.886;4.700;2022-07-29T13:21:14;3.08;;;1.50;;
8993;SDS011;4532;50.886;4.700;2022-07-29T13:23:44;7.22;;;1.60;;
8993;SDS011;4532;50.886;4.700;2022-07-29T13:26:15;2.97;;;1.65;;
8993;SDS011;4532;50.886;4.700;2022-07-29T13:28:46;2.50;;;1.40;;
8993;SDS011;4532;50.886;4.700;2022-07-29T13:31:13;2.13;;;1.50;;
8993;SDS011;4532;50.886;4.700;2022-07-29T13:33:45;2.47;;;1.75;;
8993;SDS011;4532;50.886;4.700;2022-07-29T13:36:17;2.08;;;1.38;;
8993;SDS011;4532;50.886;4.700;2022-07-29T13:38:46;2.72;;;1.30;;
8993;SDS011;4532;50.886;4.700;2022-07-29T13:41:17;1.95;;;1.17;;
8993;SDS011;4532;50.886;4.700;2022-07-29T13:43:44;2.40;;;1.73;;
8993;SDS011;4532;50.886;4.700;2022-07-29T13:46:17;4.07;;;2.00;;
8993;SDS011;4532;50.886;4.700;2022-07-29T13:48:45;3.22;;;1.58;;
8993;SDS011;4532;50.886;4.700;2022-07-29T13:51:17;4.32;;;1.50;;
8993;SDS011;4532;50.886;4.700;2022-07-29T13:53:46;5.75;;;1.95;;
8993;SDS011;4532;50.886;4.700;2022-07-29T13:56:16;2.40;;;1.73;;
8993;SDS011;4532;50.886;4.700;2022-07-29T13:58:45;3.55;;;1.83;;
8993;SDS011;4532;50.886;4.700;2022-07-29T14:01:13;3.45;;;1.60;;
8993;SDS011;4532;50.886;4.700;2022-07-29T14:03:41;1.83;;;1.45;;
8993;SDS011;4532;50.886;4.700;2022-07-29T14:06:11;4.22;;;1.75;;
8993;SDS011;4532;50.886;4.700;2022-07-29T14:08:39;4.40;;;2.00;;
8993;SDS011;4532;50.886;4.700;2022-07-29T14:11:08;3.50;;;1.65;;
8993;SDS011;4532;50.886;4.700;2022-07-29T14:13:36;2.75;;;1.75;;
8993;SDS011;4532;50.886;4.700;2022-07-29T14:16:03;3.72;;;1.70;;
8993;SDS011;4532;50.886;4.700;2022-07-29T14:18:31;1.67;;;1.52;;
8993;SDS011;4532;50.886;4.700;2022-07-29T14:21:00;4.22;;;2.20;;
8993;SDS011;4532;50.886;4.700;2022-07-29T14:23:28;3.65;;;1.95;;
8993;SDS011;4532;50.886;4.700;2022-07-29T14:25:55;3.33;;;2.40;;
8993;SDS011;4532;50.886;4.700;2022-07-29T14:28:25;4.38;;;2.70;;
8993;SDS011;4532;50.886;4.700;2022-07-29T14:30:52;3.75;;;2.70;;
8993;SDS011;4532;50.886;4.700;2022-07-29T14:33:19;6.47;;;2.40;;
8993;SDS011;4532;50.886;4.700;2022-07-29T14:35:47;2.90;;;2.10;;
8993;SDS011;4532;50.886;4.700;2022-07-29T14:38:16;2.70;;;2.35;;
8993;SDS011;4532;50.886;4.700;2022-07-29T14:40:43;3.38;;;2.60;;
8993;SDS011;4532;50.886;4.700;2022-07-29T14:43:18;3.90;;;2.42;;
8993;SDS011;4532;50.886;4.700;2022-07-29T14:45:48;2.67;;;2.22;;
8993;SDS011;4532;50.886;4.700;2022-07-29T14:48:16;6.75;;;2.47;;
8993;SDS011;4532;50.886;4.700;2022-07-29T14:50:46;6.78;;;2.83;;
8993;SDS011;4532;50.886;4.700;2022-07-29T14:53:13;4.25;;;2.20;;
8993;SDS011;4532;50.886;4.700;2022-07-29T14:55:40;3.58;;;2.03;;
8993;SDS011;4532;50.886;4.700;2022-07-29T14:58:08;4.80;;;2.17;;
8993;SDS011;4532;50.886;4.700;2022-07-29T15:00:44;3.45;;;2.40;;
8993;SDS011;4532;50.886;4.700;2022-07-29T15:03:12;4.78;;;1.92;;
8993;SDS011;4532;50.886;4.700;2022-07-29T15:05:49;2.58;;;1.55;;
8993;SDS011;4532;50.886;4.700;2022-07-29T15:08:17;5.68;;;2.33;;
8993;SDS011;4532;50.886;4.700;2022-07-29T15:10:45;4.38;;;1.60;;
8993;SDS011;4532;50.886;4.700;2022-07-29T15:13:14;6.28;;;3.05;;
8993;SDS011;4532;50.886;4.700;2022-07-29T15:15:43;4.97;;;2.10;;
8993;SDS011;4532;50.886;4.700;2022-07-29T15:18:14;4.43;;;2.17;;
8993;SDS011;4532;50.886;4.700;2022-07-29T15:20:51;3.58;;;1.70;;
8993;SDS011;4532;50.886;4.700;2022-07-29T15:23:19;3.38;;;2.10;;
8993;SDS011;4532;50.886;4.700;2022-07-29T15:25:49;2.58;;;1.73;;
8993;SDS011;4532;50.886;4.700;2022-07-29T15:28:18;2.53;;;1.70;;
8993;SDS011;4532;50.886;4.700;2022-07-29T15:30:46;3.42;;;1.63;;
8993;SDS011;4532;50.886;4.700;2022-07-29T15:33:13;6.55;;;2.05;;
8993;SDS011;4532;50.886;4.700;2022-07-29T15:35:42;3.42;;;1.45;;
8993;SDS011;4532;50.886;4.700;2022-07-29T15:38:09;3.38;;;1.48;;
8993;SDS011;4532;50.886;4.700;2022-07-29T15:40:38;3.88;;;1.20;;
8993;SDS011;4532;50.886;4.700;2022-07-29T15:43:10;4.20;;;1.80;;
8993;SDS011;4532;50.886;4.700;2022-07-29T15:45:38;3.35;;;1.45;;
8993;SDS011;4532;50.886;4.700;2022-07-29T15:48:07;2.15;;;1.58;;
8993;SDS011;4532;50.886;4.700;2022-07-29T15:50:40;4.53;;;1.80;;
8993;SDS011;4532;50.886;4.700;2022-07-29T15:53:07;2.80;;;1.45;;
8993;SDS011;4532;50.886;4.700;2022-07-29T15:55:34;6.90;;;1.63;;
8993;SDS011;4532;50.886;4.700;2022-07-29T15:58:06;2.67;;;1.67;;
8993;SDS011;4532;50.886;4.700;2022-07-29T16:00:33;1.77;;;1.40;;
8993;SDS011;4532;50.886;4.700;2022-07-29T16:03:01;3.08;;;1.40;;
8993;SDS011;4532;50.886;4.700;2022-07-29T16:05:30;1.95;;;1.58;;
8993;SDS011;4532;50.886;4.700;2022-07-29T16:08:00;2.38;;;1.50;;
8993;SDS011;4532;50.886;4.700;2022-07-29T16:10:27;3.22;;;1.40;;
8993;SDS011;4532;50.886;4.700;2022-07-29T16:12:57;3.72;;;1.30;;
8993;SDS011;4532;50.886;4.700;2022-07-29T16:15:25;5.70;;;1.58;;
8993;SDS011;4532;50.886;4.700;2022-07-29T16:17:52;4.03;;;1.40;;
8993;SDS011;4532;50.886;4.700;2022-07-29T16:20:22;3.45;;;1.48;;
8993;SDS011;4532;50.886;4.700;2022-07-29T16:22:52;3.88;;;1.52;;
8993;SDS011;4532;50.886;4.700;2022-07-29T16:25:20;4.88;;;1.25;;
8993;SDS011;4532;50.886;4.700;2022-07-29T16:28:04;5.95;;;1.70;;
8993;SDS011;4532;50.886;4.700;2022-07-29T16:30:31;5.55;;;1.42;;
8993;SDS011;4532;50.886;4.700;2022-07-29T16:33:01;2.65;;;1.55;;
8993;SDS011;4532;50.886;4.700;2022-07-29T16:35:34;2.70;;;1.50;;
8993;SDS011;4532;50.886;4.700;2022-07-29T16:38:05;3.47;;;1.50;;